ADDS METAR Data INFO
IDs: Format: Raw Decoded Include TAF

Data at: 0107 UTC 24 Jun 2018

KLHQ 240053Z AUTO 24005KT 10SM FEW045 OVC080 23/19 A2981 RMK AO2 SLP090 T02280189
KLHQ 232353Z AUTO 23005KT 10SM FEW080 23/19 A2981 RMK AO2 SLP087 T02330189 10261 20233 53005
KLHQ 232253Z AUTO 24008KT 10SM FEW050 BKN075 24/18 A2980 RMK AO2 SLP083 T02390183
KLHQ 232153Z AUTO 23008KT 10SM SCT039 BKN048 26/19 A2979 RMK AO2 SLP080 T02560194
KLHQ 232053Z AUTO 25010KT 10SM FEW033 SCT085 26/19 A2979 RMK AO2 SLP081 T02560189 53003
KLHQ 231953Z AUTO 23011G18KT 10SM FEW033 BKN070 OVC085 24/19 A2979 RMK AO2 SLP082 T02440194
KLHQ 231853Z AUTO 25012G19KT 10SM FEW034 SCT045 BKN070 26/19 A2978 RMK AO2 SLP076 T02560189
KLHQ 231753Z AUTO 25013G19KT 10SM FEW036 SCT044 26/19 A2978 RMK AO2 SLP077 T02560189 10256 20200 50000
KLHQ 231653Z AUTO 25010KT 10SM FEW030 BKN070 25/19 A2979 RMK AO2 SLP079 T02500189
KLHQ 231553Z AUTO 27006KT 10SM FEW028 SCT040 BKN048 23/19 A2979 RMK AO2 SLP080 T02330194
KLHQ 231453Z AUTO 24013G18KT 10SM FEW026 SCT032 BKN055 23/18 A2978 RMK AO2 SLP078 T02280183 51006
KLHQ 231353Z AUTO 25008G16KT 10SM BKN049 22/18 A2977 RMK AO2 SLP076 T02170183
KLHQ 231318Z AUTO 24010G17KT 10SM SCT019 22/19 A2977 RMK AO2 T02220189
KLHQ 231253Z AUTO 23010G19KT 10SM BKN016 BKN023 21/18 A2977 RMK AO2 SLP075 T02110183
KLHQ 231153Z AUTO 22010G16KT 10SM SCT012 BKN060 20/19 A2976 RMK AO2 SLP071 70023 T02000189 10211 20194 51013
KLHQ 231114Z AUTO 23007KT 10SM BKN011 BKN055 20/19 A2975 RMK AO2 T02000189
KLHQ 231053Z AUTO 22007KT 10SM FEW011 SCT110 20/19 A2975 RMK AO2 SLP066 T02000189
KLHQ 231024Z AUTO 21007KT 10SM FEW017 BKN043 BKN110 19/18 A2974 RMK AO2 T01940183
KLHQ 230953Z AUTO 22005KT 10SM FEW016 BKN024 OVC035 19/19 A2974 RMK AO2 SLP065 T01940189
KLHQ 230928Z AUTO 20007KT 10SM SCT010 BKN018 OVC022 19/19 A2973 RMK AO2 T01940189
KLHQ 230853Z AUTO 19004KT 10SM OVC010 19/19 A2972 RMK AO2 CIG 008V013 SLP058 T01940189 55000
KLHQ 230811Z AUTO 19006KT 10SM BKN011 OVC018 20/19 A2972 RMK AO2 T02000189
KLHQ 230753Z AUTO 18007KT 10SM FEW010 BKN016 OVC030 20/19 A2972 RMK AO2 SLP055 T02000189
KLHQ 230725Z AUTO 17006KT 10SM SCT009 OVC016 19/19 A2972 RMK AO2 T01940189
KLHQ 230704Z AUTO 17007KT 10SM BKN009 OVC095 19/19 A2972 RMK AO2 T01940189
KLHQ 230653Z AUTO 17007KT 10SM SCT008 OVC100 19/19 A2971 RMK AO2 SLP054 T01940189
KLHQ 230646Z AUTO 17006KT 10SM FEW008 OVC100 19/19 A2971 RMK AO2 T01940189
KLHQ 230635Z AUTO 17007KT 10SM FEW009 OVC100 20/19 A2972 RMK AO2 T02000194
KLHQ 230615Z AUTO 17006KT 10SM BKN009 OVC100 20/19 A2972 RMK AO2 CIG 008V013 T02000194
KLHQ 230553Z AUTO 17008KT 10SM BKN010 OVC095 20/19 A2972 RMK AO2 CIG 008V013 SLP057 60015 T02000194 10222 20200 56003
KLHQ 230453Z AUTO 16006KT 10SM BKN014 BKN120 20/19 A2972 RMK AO2 SLP059 T02000189 402830200
KLHQ 230353Z AUTO 15009KT 10SM OVC100 20/19 A2972 RMK AO2 RAE18 SLP056 P0000 T02000194
KLHQ 230253Z AUTO 14009KT 10SM -RA FEW048 OVC090 20/19 A2973 RMK AO2 SLP062 P0015 60015 T02000194 51008
KLHQ 230153Z AUTO 14010KT 10SM -RA SCT060 BKN080 BKN110 21/19 A2972 RMK AO2 LTG DSNT S RAB53 SLP058 P0000 T02110194
KLHQ 230053Z AUTO 13009KT 10SM FEW060 SCT100 BKN120 22/20 A2972 RMK AO2 SLP059 T02170200
KLHQ 222353Z AUTO 11004KT 10SM SCT110 22/19 A2971 RMK AO2 SLP053 60002 T02220194 10283 20222 58001
KLHQ 222253Z AUTO 15008KT 10SM BKN110 23/20 A2972 RMK AO2 LTG DSNT N-SE RAE07 SLP056 P0000 T02330200
KLHQ 222235Z AUTO 14005KT 10SM FEW080 BKN110 23/20 A2971 RMK AO2 LTG DSNT E AND SE RAE07 P0000 T02280200
KLHQ 222153Z AUTO 22010KT 9SM VCTS -RA BKN075 BKN095 24/21 A2971 RMK AO2 LTG DSNT S RAE00B53 SLP054 P0001 T02390206
KLHQ 222136Z AUTO 17006KT 10SM VCTS SCT070 BKN090 24/21 A2969 RMK AO2 LTG DSNT S AND SW RAE00 P0000 T02390206
KLHQ 222106Z AUTO 14005KT 10SM FEW035 BKN050 OVC080 24/22 A2970 RMK AO2 LTG DSNT NE AND S RAE00 P0000 T02440222
KLHQ 222053Z AUTO 12009KT 10SM VCTS -RA FEW036 BKN048 OVC100 24/22 A2971 RMK AO2 LTG DSNT N AND NE AND S RAB13E29B42 TSB25E40 SLP053 P0001 60001 T02390217 55003
KLHQ 222046Z AUTO 13008KT 9SM VCTS -RA FEW036 BKN049 OVC100 24/22 A2971 RMK AO2 LTG DSNT N AND S RAB13E29B42 TSB25E40 P0001 T02390217
KLHQ 222031Z AUTO 13009KT 10SM TS FEW040 BKN050 OVC110 25/22 A2971 RMK AO2 LTG DSNT N-E RAB13E29 TSB25 P0001 T02500217
KLHQ 221953Z AUTO 21005KT 10SM BKN039 BKN046 OVC120 27/21 A2971 RMK AO2 LTG DSNT NE-SE SLP053 T02670206
KLHQ 221918Z AUTO 22007KT 10SM FEW120 28/21 A2970 RMK AO2 LTG DSNT N-SE T02780206
KLHQ 221853Z AUTO 21010KT 10SM VCTS FEW070 FEW090 FEW110 27/21 A2971 RMK AO2 LTG DSNT N-SE RAB18E33 TSB33E48 SLP054 P0000 T02720211
KLHQ 221839Z AUTO 18008KT 10SM TS FEW039 SCT070 BKN090 27/22 A2972 RMK AO2 LTG DSNT NE AND S RAB18E33 TSB33 P0000 T02720222
KLHQ 221753Z AUTO 18010KT 10SM FEW024 SCT030 27/22 A2972 RMK AO2 LTG DSNT N AND NE RAE10 SLP056 P0006 60006 T02720222 10272 20217 58012
KLHQ 221712Z AUTO 21006KT 10SM VCTS FEW025 SCT065 BKN090 24/22 A2973 RMK AO2 LTG DSNT E RAE10 P0006 T02440217
KLHQ 221705Z AUTO 20006KT 2 1/2SM VCTS -RA BR FEW025 SCT042 BKN060 23/21 A2974 RMK AO2 LTG DSNT N P0006 T02330211
KLHQ 221700Z AUTO 18007KT 1 3/4SM VCTS +RA BR FEW023 BKN039 OVC075 22/20 A2974 RMK AO2 LTG DSNT N P0006 T02220200
KLHQ 221657Z AUTO 20007KT 2SM +RA SCT023 BKN055 OVC070 22/19 A2974 RMK AO2 LTG DSNT N AND NW P0005 T02220194
KLHQ 221653Z AUTO 22007G18KT 9SM -RA SCT025 BKN047 BKN070 23/19 A2974 RMK AO2 WSHFT 1633 LTG DSNT N AND NW RAB44 SLP066 P0000 T02280194
KLHQ 221616Z AUTO 18008KT 10SM SCT014 SCT025 26/22 A2975 RMK AO2 T02610222
KLHQ 221553Z AUTO 18006KT 10SM BKN015 OVC020 24/22 A2975 RMK AO2 SLP067 T02440222
KLHQ 221526Z AUTO 15007KT 10SM BKN015 24/22 A2975 RMK AO2 T02440222
KLHQ 221453Z AUTO 18008KT 10SM BKN012 OVC019 24/22 A2976 RMK AO2 SLP070 T02390222 58000
KLHQ 221402Z AUTO 14005KT 10SM OVC012 23/22 A2976 RMK AO2 T02280217
KLHQ 221353Z AUTO 14006KT 10SM BKN009 BKN013 OVC026 23/22 A2976 RMK AO2 CIG 007V012 SLP072 T02280217
KLHQ 221330Z AUTO 15008KT 10SM OVC008 23/22 A2977 RMK AO2 T02280217